Terminal Aerodrome Forecast
Issued by NWS Tulsa, OK

Home | Current Version | Previous Version | Text Only | Print | Product List | Glossary Off
Versions: 1 2 3 4 5 6 7 8 9 10 11 12

000
FTUS44 KTSA 202300
TAFFSM
TAF
KFSM 202338Z 2100/2124 00000KT P6SM SKC
     FM210700 00000KT 4SM BR SKC
     FM211100 00000KT 1/4SM FG BKN002
     FM211400 07003KT 4SM BR BKN250
     FM211500 09004KT P6SM BKN250=

USA.gov is the U.S. government's official web portal to all federal, state and local government web resources and services.